Albin, Mississippi
Current Conditions -  °F | °C
As of 4:55 PM on Tuesday 21 Oct 2014 (Local Time) from KCKM Reporting Station
Clear Clear  
Wind Chill: 75°   Ceiling: Unl
Heat Index: 75°   Visibility: 9mi
Dew Point: 54°   Wind: 7mph
Humidity: 47%   Direction: 350°N
Pressure: 30.04"   Gusts: NA
Location:  33.9477°N, 90.3476°W
Report Text: KCKM 212155Z AUTO 35006KT 9SM CLR 24/12 A3004 RMK AO1
Loading
Personal Weather Stations






























Interactive Weather Map New forecast layout! Learn more

10-Day Weather Forecast

Advertisements
Track Severe Weather on mobile